createdAt,value
2018-12-25T00:01:03.920Z,11.60
2018-12-25T00:05:16.808Z,11.70
2018-12-25T00:09:30.069Z,11.70
2018-12-25T00:13:43.996Z,11.70
2018-12-25T00:17:56.572Z,11.70
2018-12-25T00:22:09.545Z,11.60
2018-12-25T00:26:22.264Z,11.60
2018-12-25T00:30:35.190Z,11.60
2018-12-25T00:34:47.748Z,11.60
2018-12-25T00:39:02.511Z,11.50
2018-12-25T00:43:15.050Z,11.50
2018-12-25T00:47:27.448Z,11.50
2018-12-25T00:51:41.989Z,11.50
2018-12-25T00:55:56.017Z,11.30
2018-12-25T01:00:09.029Z,11.30
2018-12-25T01:04:21.538Z,11.30
2018-12-25T01:08:34.505Z,11.30
2018-12-25T01:12:48.152Z,11.30
2018-12-25T01:17:00.612Z,11.40
2018-12-25T01:21:15.338Z,11.40
2018-12-25T01:25:27.800Z,11.30
2018-12-25T01:29:40.856Z,11.30
2018-12-25T01:33:53.521Z,11.30
2018-12-25T01:38:08.017Z,11.30
2018-12-25T01:42:20.640Z,11.30
2018-12-25T01:46:33.036Z,11.20
2018-12-25T01:50:45.897Z,11.20
2018-12-25T01:54:58.579Z,11.20
2018-12-25T01:59:10.936Z,11.20
2018-12-25T02:03:23.768Z,11.10
2018-12-25T02:07:36.368Z,11.10
2018-12-25T02:11:49.897Z,11.00
2018-12-25T02:16:02.225Z,11.00
2018-12-25T02:20:15.083Z,10.90
2018-12-25T02:24:28.741Z,10.70
2018-12-25T02:28:42.669Z,10.70
2018-12-25T02:32:55.571Z,10.60
2018-12-25T02:37:08.190Z,10.60
2018-12-25T02:41:21.168Z,10.50
2018-12-25T02:45:33.728Z,10.30
2018-12-25T02:49:50.420Z,10.20
2018-12-25T02:54:00.619Z,9.90
2018-12-25T02:58:13.124Z,9.90
2018-12-25T03:02:26.105Z,9.90
2018-12-25T03:06:38.839Z,9.90
2018-12-25T03:10:51.748Z,9.90
2018-12-25T03:15:04.218Z,9.80
2018-12-25T03:19:17.202Z,9.80
2018-12-25T03:23:29.766Z,9.80
2018-12-25T03:27:42.751Z,9.70
2018-12-25T03:31:55.315Z,9.50
2018-12-25T03:36:07.815Z,9.30
2018-12-25T03:40:21.268Z,9.30
2018-12-25T03:44:33.573Z,9.30
2018-12-25T03:48:46.462Z,9.30
2018-12-25T03:52:59.100Z,9.40
2018-12-25T03:57:12.075Z,9.50
2018-12-25T04:01:24.575Z,9.60
2018-12-25T04:05:37.568Z,9.70
2018-12-25T04:09:50.289Z,9.70
2018-12-25T04:14:02.642Z,9.70
2018-12-25T04:18:15.425Z,9.70
2018-12-25T04:22:27.771Z,9.70
2018-12-25T04:26:40.079Z,9.80
2018-12-25T04:30:52.978Z,9.90
2018-12-25T04:35:05.537Z,9.90
2018-12-25T04:39:18.609Z,10.00
2018-12-25T04:43:31.199Z,9.90
2018-12-25T04:47:44.180Z,10.00
2018-12-25T04:51:56.806Z,10.00
2018-12-25T04:56:11.917Z,9.90
2018-12-25T05:00:24.900Z,9.90
2018-12-25T05:04:37.377Z,9.80
2018-12-25T05:08:49.766Z,9.80
2018-12-25T05:13:02.728Z,9.80
2018-12-25T05:17:15.316Z,9.90
2018-12-25T05:21:28.204Z,9.90
2018-12-25T05:25:40.772Z,10.00
2018-12-25T05:29:53.082Z,10.00
2018-12-25T05:34:06.066Z,9.90
2018-12-25T05:38:18.532Z,10.00
2018-12-25T05:42:30.924Z,9.80
2018-12-25T05:46:43.256Z,9.80
2018-12-25T05:50:56.101Z,9.70
2018-12-25T05:55:08.660Z,9.70
2018-12-25T05:59:21.586Z,9.70
2018-12-25T06:03:34.044Z,9.80
2018-12-25T06:07:46.354Z,9.80
2018-12-25T06:11:59.242Z,9.90
2018-12-25T06:16:11.874Z,9.90
2018-12-25T06:20:24.842Z,10.00
2018-12-25T06:24:37.460Z,9.90
2018-12-25T06:28:49.868Z,9.90
2018-12-25T06:33:02.766Z,10.00
2018-12-25T06:37:15.318Z,10.00
2018-12-25T06:41:28.304Z,9.90
2018-12-25T06:45:41.204Z,10.00
2018-12-25T06:49:54.060Z,10.00
2018-12-25T06:54:06.625Z,10.00
2018-12-25T06:58:19.085Z,9.80
2018-12-25T07:02:31.712Z,9.70
2018-12-25T07:06:44.068Z,9.80
2018-12-25T07:10:56.368Z,9.80
2018-12-25T07:15:08.679Z,9.80
2018-12-25T07:19:21.065Z,9.70
2018-12-25T07:23:33.721Z,9.60
2018-12-25T07:27:46.140Z,9.60
2018-12-25T07:31:58.443Z,9.60
2018-12-25T07:36:10.765Z,9.40
2018-12-25T07:40:23.577Z,9.50
2018-12-25T07:44:36.008Z,9.50
2018-12-25T07:48:48.597Z,9.50
2018-12-25T07:53:01.482Z,9.50
2018-12-25T07:57:14.273Z,9.50
2018-12-25T08:01:27.060Z,9.30
2018-12-25T08:05:40.246Z,9.10
2018-12-25T08:09:53.055Z,9.10
2018-12-25T08:14:07.542Z,9.10
2018-12-25T08:18:21.229Z,9.10
2018-12-25T08:22:33.853Z,9.10
2018-12-25T08:26:47.738Z,9.20
2018-12-25T08:31:00.520Z,9.20
2018-12-25T08:35:12.980Z,9.20
2018-12-25T08:39:25.288Z,9.20
2018-12-25T08:43:38.186Z,9.30
2018-12-25T08:47:50.652Z,9.30
2018-12-25T08:52:03.032Z,9.40
2018-12-25T08:56:15.388Z,9.50
2018-12-25T09:00:28.210Z,9.50
2018-12-25T09:04:40.601Z,9.60
2018-12-25T09:08:53.017Z,9.60
2018-12-25T09:13:05.907Z,9.70
2018-12-25T09:17:18.362Z,9.60
2018-12-25T09:21:31.908Z,9.50
2018-12-25T09:25:44.388Z,9.50
2018-12-25T09:29:57.766Z,9.60
2018-12-25T09:34:10.207Z,9.60
2018-12-25T09:38:23.080Z,9.80
2018-12-25T09:42:35.528Z,9.90
2018-12-25T09:46:48.521Z,9.90
2018-12-25T09:51:01.074Z,10.00
2018-12-25T09:55:13.642Z,10.10
2018-12-25T09:59:27.063Z,10.10
2018-12-25T10:03:39.809Z,10.10
2018-12-25T10:07:52.272Z,10.20
2018-12-25T10:12:05.464Z,10.20
2018-12-25T10:16:17.922Z,10.30
2018-12-25T10:20:30.913Z,10.40
2018-12-25T10:24:43.489Z,10.40
2018-12-25T10:28:55.976Z,10.50
2018-12-25T10:33:11.608Z,10.50
2018-12-25T10:37:26.636Z,10.60
2018-12-25T10:41:40.645Z,10.70
2018-12-25T10:45:56.032Z,10.70
2018-12-25T10:50:11.439Z,10.90
2018-12-25T10:54:24.328Z,10.90
2018-12-25T10:58:36.901Z,11.00
2018-12-25T11:02:49.837Z,10.90
2018-12-25T11:07:03.557Z,11.00
2018-12-25T11:11:17.240Z,11.00
2018-12-25T11:15:29.659Z,11.10
2018-12-25T11:19:41.968Z,11.10
2018-12-25T11:23:54.852Z,11.20
2018-12-25T11:28:07.396Z,11.30
2018-12-25T11:32:20.955Z,11.30
2018-12-25T11:36:33.369Z,11.30
2018-12-25T11:40:46.921Z,11.30
2018-12-25T11:44:59.806Z,11.40
2018-12-25T11:49:12.430Z,11.40
2018-12-25T11:53:25.344Z,11.40
2018-12-25T11:57:37.969Z,11.20
2018-12-25T12:01:54.047Z,11.30
2018-12-25T12:06:06.749Z,11.20
2018-12-25T12:10:19.973Z,11.30
2018-12-25T12:14:32.516Z,11.30
2018-12-25T12:18:45.373Z,11.20
2018-12-25T12:22:57.828Z,11.20
2018-12-25T12:27:10.245Z,11.20
2018-12-25T12:31:23.193Z,11.10
2018-12-25T12:35:35.920Z,11.10
2018-12-25T12:39:48.672Z,11.00
2018-12-25T12:44:04.065Z,11.00
2018-12-25T12:48:18.172Z,11.00
2018-12-25T12:52:31.215Z,11.00
2018-12-25T12:56:44.741Z,11.10
2018-12-25T13:00:58.926Z,11.30
2018-12-25T13:05:12.035Z,11.40
2018-12-25T13:09:24.540Z,11.40
2018-12-25T13:13:36.947Z,11.40
2018-12-25T13:17:49.832Z,11.40
2018-12-25T13:22:02.287Z,11.40
2018-12-25T13:26:14.600Z,11.40
2018-12-25T13:30:27.502Z,11.30
2018-12-25T13:34:40.024Z,11.40
2018-12-25T13:38:52.350Z,11.50
2018-12-25T13:43:05.164Z,11.50
2018-12-25T13:47:17.601Z,11.60
2018-12-25T13:51:30.489Z,11.60
2018-12-25T13:55:43.212Z,11.70
2018-12-25T13:59:56.308Z,11.70
2018-12-25T14:04:09.139Z,11.80
2018-12-25T14:08:23.437Z,12.00
2018-12-25T14:12:35.994Z,11.90
2018-12-25T14:16:48.311Z,11.90
2018-12-25T14:21:01.744Z,11.90
2018-12-25T14:25:14.629Z,12.00
2018-12-25T14:29:27.188Z,12.00
2018-12-25T14:33:39.499Z,12.00
2018-12-25T14:37:52.553Z,11.90
2018-12-25T14:42:05.156Z,11.80
2018-12-25T14:46:18.141Z,11.90
2018-12-25T14:50:30.698Z,11.90
2018-12-25T14:54:43.689Z,11.90
2018-12-25T14:58:56.124Z,11.70
2018-12-25T15:03:09.200Z,11.60
2018-12-25T15:07:21.804Z,11.60
2018-12-25T15:11:34.684Z,11.70
2018-12-25T15:15:47.386Z,11.70
2018-12-25T15:20:00.360Z,11.60
2018-12-25T15:24:12.960Z,11.50
2018-12-25T15:28:25.897Z,11.50
2018-12-25T15:32:38.576Z,11.50
2018-12-25T15:36:51.105Z,11.50
2018-12-25T15:41:04.045Z,11.50
2018-12-25T15:45:16.625Z,11.50
2018-12-25T15:49:29.496Z,11.40
2018-12-25T15:53:42.164Z,11.50
2018-12-25T15:57:54.948Z,11.40
2018-12-25T16:02:07.561Z,11.30
2018-12-25T16:06:20.283Z,11.10
2018-12-25T16:10:34.092Z,11.00
2018-12-25T16:14:46.589Z,11.00
2018-12-25T16:18:59.014Z,11.00
2018-12-25T16:23:11.924Z,11.00
2018-12-25T16:27:24.544Z,11.00
2018-12-25T16:31:37.641Z,11.00
2018-12-25T16:35:49.995Z,11.00
2018-12-25T16:40:02.305Z,11.00
2018-12-25T16:44:15.157Z,11.00
2018-12-25T16:48:27.660Z,10.90
2018-12-25T16:52:40.070Z,10.80
2018-12-25T16:56:53.061Z,10.70
2018-12-25T17:01:05.688Z,10.60
2018-12-25T17:05:18.513Z,10.40
2018-12-25T17:09:30.976Z,10.50
2018-12-25T17:13:43.443Z,10.50
2018-12-25T17:17:56.308Z,10.50
2018-12-25T17:22:11.235Z,10.50
2018-12-25T17:26:23.696Z,10.60
2018-12-25T17:30:36.686Z,10.60
2018-12-25T17:34:49.247Z,10.50
2018-12-25T17:39:01.664Z,10.40
2018-12-25T17:43:14.645Z,10.40
2018-12-25T17:47:27.171Z,10.20
2018-12-25T17:51:40.089Z,9.90
2018-12-25T17:55:52.752Z,9.70
2018-12-25T18:00:05.489Z,9.50
2018-12-25T18:04:18.358Z,9.50
2018-12-25T18:08:31.431Z,9.50
2018-12-25T18:12:43.949Z,9.50
2018-12-25T18:16:57.019Z,9.40
2018-12-25T18:21:10.202Z,9.40
2018-12-25T18:25:24.554Z,9.40
2018-12-25T18:29:37.443Z,9.20
2018-12-25T18:33:50.428Z,9.10
2018-12-25T18:38:02.844Z,9.10
2018-12-25T18:42:23.087Z,9.00
2018-12-25T18:46:29.940Z,9.00
2018-12-25T18:50:42.980Z,9.00
2018-12-25T18:54:55.576Z,9.00
2018-12-25T18:59:08.037Z,9.00
2018-12-25T19:03:20.781Z,8.90
2018-12-25T19:07:33.310Z,8.80
2018-12-25T19:11:46.781Z,8.70
2018-12-25T19:16:00.586Z,8.60
2018-12-25T19:20:13.496Z,8.50
2018-12-25T19:24:26.075Z,8.40
2018-12-25T19:28:38.964Z,8.30
2018-12-25T19:32:52.748Z,8.30
2018-12-25T19:37:05.296Z,8.30
2018-12-25T19:41:19.001Z,8.20
2018-12-25T19:45:33.352Z,8.10
2018-12-25T19:49:45.996Z,8.00
2018-12-25T19:53:58.464Z,8.10
2018-12-25T19:58:12.049Z,8.10
2018-12-25T20:02:25.924Z,8.20
2018-12-25T20:07:07.646Z,8.20
2018-12-25T20:11:50.012Z,8.20
2018-12-25T20:16:54.685Z,8.10
2018-12-25T20:21:39.584Z,7.90
2018-12-25T20:26:38.848Z,7.80
2018-12-25T20:31:29.371Z,7.70
2018-12-25T20:36:30.639Z,7.80
2018-12-25T20:41:28.112Z,7.90
2018-12-25T20:46:16.680Z,7.90
2018-12-25T20:51:17.527Z,7.90
2018-12-25T20:56:31.853Z,7.90
2018-12-25T21:01:13.794Z,7.70
2018-12-25T21:06:02.773Z,7.50
2018-12-25T21:10:59.872Z,7.30
2018-12-25T21:16:05.090Z,7.40
2018-12-25T21:21:03.889Z,7.60
2018-12-25T21:25:51.613Z,7.50
2018-12-25T21:30:09.321Z,7.40
2018-12-25T21:34:21.659Z,7.30
2018-12-25T21:38:33.973Z,7.30
2018-12-25T21:42:47.471Z,7.20
2018-12-25T21:47:00.300Z,7.10
2018-12-25T21:51:12.765Z,7.00
2018-12-25T21:55:25.363Z,7.20
2018-12-25T21:59:41.673Z,7.20
2018-12-25T22:03:57.385Z,7.20
2018-12-25T22:08:14.082Z,7.20
2018-12-25T22:12:26.748Z,7.20
2018-12-25T22:16:39.031Z,6.80
2018-12-25T22:20:52.028Z,6.60
2018-12-25T22:25:04.575Z,6.40
2018-12-25T22:29:16.999Z,6.40
2018-12-25T22:33:29.797Z,6.50
2018-12-25T22:37:42.433Z,6.50
2018-12-25T22:41:55.407Z,6.60
2018-12-25T22:46:07.893Z,6.70
2018-12-25T22:50:20.889Z,6.60
2018-12-25T22:54:33.596Z,6.50
2018-12-25T22:58:46.011Z,6.30
2018-12-25T23:02:58.941Z,6.30
2018-12-25T23:07:11.434Z,6.40
2018-12-25T23:11:24.344Z,6.40
2018-12-25T23:15:36.866Z,6.50
2018-12-25T23:19:49.834Z,6.30
2018-12-25T23:24:02.498Z,6.30
2018-12-25T23:28:14.806Z,6.30
2018-12-25T23:32:27.861Z,6.30
2018-12-25T23:36:40.371Z,6.50
2018-12-25T23:40:53.898Z,6.50
2018-12-25T23:45:06.404Z,6.50
2018-12-25T23:49:19.752Z,6.40
2018-12-25T23:53:33.293Z,6.30
2018-12-25T23:57:45.703Z,6.30
